createdAt,value
2018-11-04T00:00:53.496Z,99.40
2018-11-04T00:03:21.950Z,99.50
2018-11-04T00:05:50.569Z,99.60
2018-11-04T00:08:19.253Z,99.50
2018-11-04T00:10:47.864Z,99.40
2018-11-04T00:13:16.317Z,99.60
2018-11-04T00:15:44.876Z,99.50
2018-11-04T00:18:13.344Z,99.60
2018-11-04T00:20:41.792Z,99.80
2018-11-04T00:23:10.254Z,99.60
2018-11-04T00:25:38.701Z,99.50
2018-11-04T00:28:08.189Z,99.50
2018-11-04T00:30:36.639Z,99.50
2018-11-04T00:33:05.618Z,99.90
2018-11-04T00:35:34.287Z,99.80
2018-11-04T00:38:02.868Z,99.80
2018-11-04T00:40:31.659Z,99.70
2018-11-04T00:43:00.410Z,99.70
2018-11-04T00:45:29.195Z,99.80
2018-11-04T00:47:58.024Z,99.60
2018-11-04T00:50:26.717Z,99.60
2018-11-04T00:52:55.542Z,99.60
2018-11-04T00:55:24.098Z,99.80
2018-11-04T00:57:52.784Z,99.80
2018-11-04T01:00:21.254Z,99.70
2018-11-04T01:02:50.862Z,99.50
2018-11-04T01:05:19.753Z,99.70
2018-11-04T01:07:48.487Z,99.80
2018-11-04T01:10:17.046Z,99.70
2018-11-04T01:12:45.895Z,99.70
2018-11-04T01:15:15.601Z,99.70
2018-11-04T01:17:44.634Z,99.70
2018-11-04T01:20:14.637Z,99.80
2018-11-04T01:22:44.230Z,99.70
2018-11-04T01:25:12.954Z,99.90
2018-11-04T01:27:41.822Z,99.90
2018-11-04T01:30:12.520Z,99.90
2018-11-04T01:32:40.976Z,99.70
2018-11-04T01:35:09.828Z,99.80
2018-11-04T01:37:38.377Z,99.60
2018-11-04T01:40:07.831Z,99.70
2018-11-04T01:42:36.604Z,99.70
2018-11-04T01:45:06.432Z,99.80
2018-11-04T01:47:34.996Z,99.90
2018-11-04T01:50:03.868Z,99.80
2018-11-04T01:52:32.375Z,99.60
2018-11-04T01:55:00.996Z,99.60
2018-11-04T01:57:29.575Z,99.70
2018-11-04T01:59:58.355Z,99.60
2018-11-04T02:02:26.780Z,99.60
2018-11-04T02:04:55.384Z,99.70
2018-11-04T02:07:23.943Z,99.60
2018-11-04T02:09:52.458Z,99.70
2018-11-04T02:12:21.088Z,99.80
2018-11-04T02:14:49.670Z,99.80
2018-11-04T02:17:18.521Z,99.80
2018-11-04T02:19:46.981Z,99.90
2018-11-04T02:22:15.417Z,99.80
2018-11-04T02:24:43.943Z,99.90
2018-11-04T02:27:12.523Z,99.80
2018-11-04T02:29:41.210Z,99.70
2018-11-04T02:32:10.131Z,99.80
2018-11-04T02:34:38.815Z,99.80
2018-11-04T02:37:12.229Z,99.90
2018-11-04T02:39:40.661Z,99.80
2018-11-04T02:42:09.133Z,99.80
2018-11-04T02:44:37.626Z,99.70
2018-11-04T02:47:06.158Z,99.60
2018-11-04T02:49:34.561Z,99.60
2018-11-04T02:52:03.011Z,99.60
2018-11-04T02:54:31.492Z,99.60
2018-11-04T02:56:59.977Z,99.80
2018-11-04T02:59:28.618Z,99.70
2018-11-04T03:01:57.131Z,99.80
2018-11-04T03:04:25.543Z,99.80
2018-11-04T03:06:54.002Z,99.80
2018-11-04T03:09:22.496Z,99.80
2018-11-04T03:11:50.925Z,99.80
2018-11-04T03:14:19.468Z,99.70
2018-11-04T03:16:47.957Z,99.80
2018-11-04T03:19:16.502Z,99.80
2018-11-04T03:21:45.031Z,99.70
2018-11-04T03:24:13.439Z,99.70
2018-11-04T03:26:42.161Z,99.70
2018-11-04T03:29:10.570Z,99.70
2018-11-04T03:31:39.009Z,99.70
2018-11-04T03:34:07.441Z,99.70
2018-11-04T03:36:35.882Z,99.80
2018-11-04T03:39:06.083Z,99.80
2018-11-04T03:41:34.539Z,99.60
2018-11-04T03:44:03.118Z,99.70
2018-11-04T03:46:31.552Z,99.70
2018-11-04T03:49:00.066Z,99.70
2018-11-04T03:51:28.529Z,99.60
2018-11-04T03:53:56.961Z,99.70
2018-11-04T03:56:25.405Z,99.60
2018-11-04T03:58:53.863Z,99.70
2018-11-04T04:01:22.502Z,99.60
2018-11-04T04:03:50.947Z,99.70
2018-11-04T04:06:19.463Z,99.50
2018-11-04T04:08:47.889Z,99.60
2018-11-04T04:11:16.358Z,99.60
2018-11-04T04:13:44.804Z,99.70
2018-11-04T04:16:13.225Z,99.80
2018-11-04T04:18:41.640Z,99.70
2018-11-04T04:21:10.845Z,99.40
2018-11-04T04:23:40.469Z,99.50
2018-11-04T04:26:10.171Z,99.60
2018-11-04T04:28:38.613Z,99.90
2018-11-04T04:31:07.057Z,99.60
2018-11-04T04:33:35.502Z,99.60
2018-11-04T04:36:03.949Z,99.50
2018-11-04T04:38:32.365Z,99.60
2018-11-04T04:41:00.821Z,99.50
2018-11-04T04:43:29.266Z,99.50
2018-11-04T04:45:57.689Z,99.50
2018-11-04T04:48:26.224Z,99.70
2018-11-04T04:50:54.677Z,99.70
2018-11-04T04:53:24.091Z,99.60
2018-11-04T04:55:53.903Z,99.50
2018-11-04T04:58:22.587Z,99.60
2018-11-04T05:00:51.395Z,99.70
2018-11-04T05:03:19.837Z,99.80
2018-11-04T05:05:48.356Z,99.80
2018-11-04T05:08:16.775Z,99.70
2018-11-04T05:10:45.348Z,99.70
2018-11-04T05:13:13.818Z,99.80
2018-11-04T05:15:42.330Z,99.90
2018-11-04T05:18:10.756Z,99.90
2018-11-04T05:20:39.181Z,99.90
2018-11-04T05:23:07.629Z,99.90
2018-11-04T05:25:36.051Z,99.80
2018-11-04T05:28:04.547Z,99.70
2018-11-04T05:30:32.995Z,99.70
2018-11-04T05:33:01.434Z,99.80
2018-11-04T05:35:29.861Z,99.90
2018-11-04T05:37:58.298Z,99.90
2018-11-04T05:40:26.745Z,99.90
2018-11-04T05:42:55.205Z,99.90
2018-11-04T05:45:23.641Z,99.90
2018-11-04T05:47:52.092Z,99.90
2018-11-04T05:50:20.578Z,99.90
2018-11-04T05:52:49.010Z,99.90
2018-11-04T05:55:17.473Z,99.90
2018-11-04T05:57:45.881Z,99.90
2018-11-04T06:00:14.311Z,99.90
2018-11-04T06:02:42.741Z,99.90
2018-11-04T06:05:11.700Z,99.90
2018-11-04T06:07:40.397Z,99.80
2018-11-04T06:10:08.869Z,99.90
2018-11-04T06:12:37.869Z,99.80
2018-11-04T06:15:07.348Z,99.80
2018-11-04T06:17:35.889Z,99.90
2018-11-04T06:20:04.957Z,99.80
2018-11-04T06:22:33.375Z,99.70
2018-11-04T06:25:01.795Z,99.80
2018-11-04T06:27:30.234Z,99.80
2018-11-04T06:29:58.683Z,99.80
2018-11-04T06:32:27.129Z,99.80
2018-11-04T06:34:55.567Z,99.70
2018-11-04T06:37:24.046Z,99.70
2018-11-04T06:39:52.485Z,99.70
2018-11-04T06:42:20.953Z,99.80
2018-11-04T06:44:49.427Z,99.60
2018-11-04T06:47:17.904Z,99.60
2018-11-04T06:49:46.526Z,99.60
2018-11-04T06:52:14.973Z,99.60
2018-11-04T06:54:44.382Z,99.60
2018-11-04T06:57:12.811Z,99.50
2018-11-04T06:59:41.391Z,99.50
2018-11-04T07:02:09.834Z,99.90
2018-11-04T07:04:38.370Z,99.90
2018-11-04T07:07:06.887Z,99.00
2018-11-04T07:09:35.413Z,98.70
2018-11-04T07:12:03.883Z,98.80
2018-11-04T07:14:32.316Z,98.70
2018-11-04T07:17:00.728Z,98.70
2018-11-04T07:19:29.180Z,98.80
2018-11-04T07:21:57.641Z,98.90
2018-11-04T07:24:26.098Z,99.10
2018-11-04T07:26:54.583Z,98.80
2018-11-04T07:29:23.026Z,98.80
2018-11-04T07:31:51.511Z,98.70
2018-11-04T07:34:20.066Z,98.60
2018-11-04T07:36:48.534Z,98.20
2018-11-04T07:39:16.979Z,98.30
2018-11-04T07:41:45.505Z,98.30
2018-11-04T07:44:14.059Z,98.30
2018-11-04T07:46:42.468Z,98.20
2018-11-04T07:49:10.992Z,98.00
2018-11-04T07:51:39.496Z,97.90
2018-11-04T07:54:07.925Z,97.80
2018-11-04T07:56:36.399Z,97.50
2018-11-04T07:59:05.033Z,97.60
2018-11-04T08:01:33.458Z,97.60
2018-11-04T08:04:02.039Z,97.60
2018-11-04T08:06:30.416Z,97.80
2018-11-04T08:08:58.929Z,97.90
2018-11-04T08:11:27.391Z,97.60
2018-11-04T08:13:55.893Z,97.70
2018-11-04T08:16:24.368Z,97.50
2018-11-04T08:18:52.840Z,97.70
2018-11-04T08:21:21.357Z,97.60
2018-11-04T08:23:49.802Z,97.50
2018-11-04T08:26:18.232Z,97.10
2018-11-04T08:28:46.730Z,97.10
2018-11-04T08:31:15.172Z,97.40
2018-11-04T08:33:43.628Z,97.50
2018-11-04T08:36:12.369Z,97.30
2018-11-04T08:38:40.797Z,97.40
2018-11-04T08:41:09.445Z,97.50
2018-11-04T08:43:37.952Z,97.60
2018-11-04T08:46:06.440Z,97.60
2018-11-04T08:48:34.974Z,97.00
2018-11-04T08:51:03.663Z,97.10
2018-11-04T08:53:32.343Z,96.80
2018-11-04T08:56:00.835Z,97.00
2018-11-04T08:58:29.266Z,96.80
2018-11-04T09:00:57.713Z,97.10
2018-11-04T09:03:26.213Z,96.80
2018-11-04T09:05:54.771Z,96.90
2018-11-04T09:08:23.213Z,96.90
2018-11-04T09:10:51.809Z,96.30
2018-11-04T09:13:20.245Z,96.40
2018-11-04T09:15:48.718Z,96.40
2018-11-04T09:18:17.241Z,96.30
2018-11-04T09:20:45.696Z,96.10
2018-11-04T09:23:14.168Z,95.90
2018-11-04T09:25:42.630Z,95.70
2018-11-04T09:28:11.079Z,95.80
2018-11-04T09:30:39.546Z,95.90
2018-11-04T09:33:08.033Z,95.80
2018-11-04T09:35:36.743Z,95.50
2018-11-04T09:38:05.063Z,95.60
2018-11-04T09:40:33.552Z,95.50
2018-11-04T09:43:02.001Z,95.30
2018-11-04T09:45:30.463Z,95.10
2018-11-04T09:47:58.923Z,95.30
2018-11-04T09:50:27.392Z,95.50
2018-11-04T09:52:55.893Z,95.60
2018-11-04T09:55:24.357Z,95.60
2018-11-04T09:57:52.834Z,95.90
2018-11-04T10:00:21.261Z,95.90
2018-11-04T10:02:49.741Z,95.60
2018-11-04T10:05:18.223Z,95.80
2018-11-04T10:07:46.807Z,95.70
2018-11-04T10:10:15.590Z,96.10
2018-11-04T10:12:44.719Z,96.10
2018-11-04T10:15:13.243Z,96.30
2018-11-04T10:17:41.965Z,96.10
2018-11-04T10:20:11.625Z,96.00
2018-11-04T10:22:40.466Z,95.70
2018-11-04T10:25:10.271Z,95.80
2018-11-04T10:27:39.095Z,96.10
2018-11-04T10:30:09.704Z,95.90
2018-11-04T10:32:38.275Z,96.00
2018-11-04T10:35:07.274Z,95.70
2018-11-04T10:37:35.960Z,95.20
2018-11-04T10:40:05.219Z,95.30
2018-11-04T10:42:33.717Z,95.50
2018-11-04T10:45:02.235Z,95.80
2018-11-04T10:47:30.693Z,95.50
2018-11-04T10:49:59.284Z,95.60
2018-11-04T10:52:27.727Z,95.50
2018-11-04T10:54:56.230Z,95.50
2018-11-04T10:57:24.684Z,95.30
2018-11-04T10:59:53.194Z,95.50
2018-11-04T11:02:21.695Z,95.60
2018-11-04T11:04:50.379Z,95.60
2018-11-04T11:07:18.883Z,95.80
2018-11-04T11:09:47.365Z,95.80
2018-11-04T11:12:15.804Z,95.90
2018-11-04T11:14:44.316Z,95.50
2018-11-04T11:17:12.794Z,95.90
2018-11-04T11:19:41.584Z,95.90
2018-11-04T11:22:10.227Z,95.90
2018-11-04T11:24:38.720Z,95.70
2018-11-04T11:27:07.317Z,95.50
2018-11-04T11:29:35.862Z,95.70
2018-11-04T11:32:04.502Z,95.80
2018-11-04T11:34:34.492Z,95.80
2018-11-04T11:37:04.022Z,95.80
2018-11-04T11:39:32.683Z,95.90
2018-11-04T11:42:01.223Z,96.40
2018-11-04T11:44:29.763Z,95.90
2018-11-04T11:46:58.357Z,96.20
2018-11-04T11:49:26.890Z,95.90
2018-11-04T11:51:55.472Z,96.00
2018-11-04T11:54:23.979Z,96.20
2018-11-04T11:56:52.463Z,96.20
2018-11-04T11:59:21.003Z,96.20
2018-11-04T12:01:49.574Z,96.20
2018-11-04T12:04:18.334Z,96.00
2018-11-04T12:06:46.908Z,96.20
2018-11-04T12:09:15.754Z,96.50
2018-11-04T12:11:44.418Z,96.80
2018-11-04T12:14:13.278Z,96.10
2018-11-04T12:16:42.098Z,96.20
2018-11-04T12:19:11.168Z,96.20
2018-11-04T12:21:39.813Z,96.40
2018-11-04T12:24:08.960Z,96.50
2018-11-04T12:26:38.194Z,96.50
2018-11-04T12:29:07.497Z,96.30
2018-11-04T12:31:39.153Z,96.20
2018-11-04T12:34:09.177Z,96.20
2018-11-04T12:36:39.139Z,96.40
2018-11-04T12:39:11.896Z,96.30
2018-11-04T12:41:42.142Z,96.50
2018-11-04T12:44:10.728Z,96.60
2018-11-04T12:46:44.171Z,96.30
2018-11-04T12:49:12.868Z,96.50
2018-11-04T12:51:42.567Z,96.30
2018-11-04T12:54:13.957Z,96.30
2018-11-04T12:56:44.486Z,96.20
2018-11-04T12:59:15.438Z,95.90
2018-11-04T13:01:44.249Z,95.80
2018-11-04T13:04:14.731Z,95.90
2018-11-04T13:06:43.599Z,96.00
2018-11-04T13:09:13.510Z,96.00
2018-11-04T13:11:43.664Z,96.00
2018-11-04T13:14:12.713Z,96.00
2018-11-04T13:16:44.917Z,96.20
2018-11-04T13:19:14.232Z,96.10
2018-11-04T13:21:49.814Z,96.00
2018-11-04T13:24:20.320Z,95.80
2018-11-04T13:26:49.221Z,95.90
2018-11-04T13:29:17.855Z,96.10
2018-11-04T13:31:46.798Z,96.10
2018-11-04T13:34:15.407Z,96.20
2018-11-04T13:36:43.954Z,96.00
2018-11-04T13:39:12.478Z,95.80
2018-11-04T13:41:41.851Z,96.20
2018-11-04T13:44:10.379Z,95.80
2018-11-04T13:46:39.075Z,96.00
2018-11-04T13:49:07.782Z,95.80
2018-11-04T13:51:36.296Z,95.80
2018-11-04T13:54:04.870Z,95.50
2018-11-04T13:56:33.390Z,96.00
2018-11-04T13:59:01.957Z,95.40
2018-11-04T14:01:30.544Z,95.40
2018-11-04T14:03:59.199Z,95.60
2018-11-04T14:06:27.722Z,95.70
2018-11-04T14:08:56.872Z,96.00
2018-11-04T14:11:25.524Z,95.60
2018-11-04T14:13:54.111Z,95.80
2018-11-04T14:16:22.732Z,95.60
2018-11-04T14:18:51.469Z,95.60
2018-11-04T14:21:20.172Z,95.80
2018-11-04T14:23:49.021Z,95.90
2018-11-04T14:26:17.595Z,96.20
2018-11-04T14:28:46.281Z,96.10
2018-11-04T14:31:15.138Z,96.00
2018-11-04T14:33:43.845Z,96.20
2018-11-04T14:36:12.555Z,96.10
2018-11-04T14:38:41.198Z,98.70
2018-11-04T14:41:09.877Z,96.40
2018-11-04T14:43:39.067Z,96.10
2018-11-04T14:46:07.958Z,95.90
2018-11-04T14:48:36.750Z,96.30
2018-11-04T14:51:05.687Z,96.40
2018-11-04T14:53:34.397Z,96.30
2018-11-04T14:56:03.169Z,96.50
2018-11-04T14:58:31.736Z,96.40
2018-11-04T15:01:00.842Z,96.50
2018-11-04T15:03:30.216Z,96.50
2018-11-04T15:05:59.097Z,96.40
2018-11-04T15:08:28.094Z,96.30
2018-11-04T15:10:56.947Z,96.40
2018-11-04T15:13:25.729Z,96.40
2018-11-04T15:15:54.653Z,96.50
2018-11-04T15:18:27.422Z,96.70
2018-11-04T15:21:01.227Z,96.80
2018-11-04T15:23:30.030Z,96.80
2018-11-04T15:25:59.009Z,96.80
2018-11-04T15:28:27.716Z,96.90
2018-11-04T15:30:56.327Z,97.00
2018-11-04T15:33:25.638Z,97.00
2018-11-04T15:35:54.537Z,97.10
2018-11-04T15:38:24.688Z,97.10
2018-11-04T15:40:53.764Z,97.30
2018-11-04T15:43:22.519Z,97.20
2018-11-04T15:45:51.157Z,97.20
2018-11-04T15:48:19.840Z,97.20
2018-11-04T15:50:48.502Z,97.50
2018-11-04T15:53:17.710Z,97.30
2018-11-04T15:55:46.765Z,97.40
2018-11-04T15:58:15.466Z,97.40
2018-11-04T16:00:44.300Z,97.70
2018-11-04T16:03:13.105Z,97.70
2018-11-04T16:05:42.152Z,97.60
2018-11-04T16:08:12.037Z,97.60
2018-11-04T16:10:41.889Z,97.70
2018-11-04T16:13:10.734Z,97.60
2018-11-04T16:15:40.367Z,97.80
2018-11-04T16:18:09.474Z,97.90
2018-11-04T16:20:38.272Z,98.20
2018-11-04T16:23:07.520Z,97.90
2018-11-04T16:25:36.871Z,97.90
2018-11-04T16:28:05.798Z,97.80
2018-11-04T16:30:34.961Z,97.80
2018-11-04T16:33:03.916Z,97.90
2018-11-04T16:35:32.923Z,97.90
2018-11-04T16:38:01.965Z,97.90
2018-11-04T16:40:30.811Z,97.90
2018-11-04T16:43:00.090Z,97.90
2018-11-04T16:45:29.003Z,97.90
2018-11-04T16:47:57.978Z,97.90
2018-11-04T16:50:26.898Z,97.90
2018-11-04T16:52:55.824Z,97.80
2018-11-04T16:55:24.755Z,97.80
2018-11-04T16:57:53.723Z,97.70
2018-11-04T17:00:22.642Z,97.70
2018-11-04T17:02:51.532Z,97.90
2018-11-04T17:05:20.534Z,97.80
2018-11-04T17:07:49.729Z,97.90
2018-11-04T17:10:18.617Z,98.00
2018-11-04T17:12:47.583Z,97.90
2018-11-04T17:15:16.510Z,97.90
2018-11-04T17:17:45.872Z,98.00
2018-11-04T17:20:16.704Z,98.10
2018-11-04T17:22:46.283Z,98.20
2018-11-04T17:25:15.262Z,98.20
2018-11-04T17:27:44.269Z,98.20
2018-11-04T17:30:15.474Z,98.30
2018-11-04T17:32:45.674Z,98.60
2018-11-04T17:35:15.366Z,98.30
2018-11-04T17:37:49.609Z,98.30
2018-11-04T17:40:21.297Z,98.40
2018-11-04T17:42:51.210Z,98.30
2018-11-04T17:45:20.639Z,98.00
2018-11-04T17:47:49.672Z,98.10
2018-11-04T17:50:20.236Z,98.00
2018-11-04T17:52:49.837Z,98.00
2018-11-04T17:55:18.824Z,98.10
2018-11-04T17:57:47.850Z,98.10
2018-11-04T18:00:17.660Z,98.10
2018-11-04T18:02:48.117Z,98.10
2018-11-04T18:05:17.338Z,98.10
2018-11-04T18:07:47.551Z,98.10
2018-11-04T18:12:48.575Z,98.20
2018-11-04T18:15:18.212Z,98.20
2018-11-04T18:17:48.359Z,98.00
2018-11-04T18:22:44.352Z,98.30
2018-11-04T18:25:13.883Z,98.50
2018-11-04T18:27:43.008Z,98.40
2018-11-04T18:30:14.192Z,98.80
2018-11-04T18:32:43.623Z,98.30
2018-11-04T18:35:14.236Z,98.80
2018-11-04T18:37:43.632Z,98.30
2018-11-04T18:40:15.189Z,98.50
2018-11-04T18:42:45.072Z,98.60
2018-11-04T18:45:17.144Z,98.60
2018-11-04T18:47:47.176Z,98.70
2018-11-04T18:50:20.709Z,99.00
2018-11-04T18:52:49.896Z,99.00
2018-11-04T18:55:19.199Z,99.10
2018-11-04T18:57:52.968Z,99.20
2018-11-04T19:00:22.702Z,99.20
2018-11-04T19:02:51.718Z,99.30
2018-11-04T19:07:48.007Z,99.40
2018-11-04T19:10:19.186Z,99.60
2018-11-04T19:12:48.293Z,99.70
2018-11-04T19:15:19.324Z,99.90
2018-11-04T19:17:48.382Z,99.90
2018-11-04T19:22:45.926Z,99.90
2018-11-04T19:25:16.026Z,99.90
2018-11-04T19:27:45.587Z,99.90
2018-11-04T19:30:16.154Z,99.90
2018-11-04T19:32:46.287Z,99.90
2018-11-04T19:35:16.876Z,99.90
2018-11-04T19:37:47.361Z,99.90
2018-11-04T19:40:18.202Z,99.90
2018-11-04T19:42:48.523Z,99.90
2018-11-04T19:45:20.352Z,99.90
2018-11-04T19:47:51.126Z,99.90
2018-11-04T19:50:21.030Z,99.90
2018-11-04T19:52:51.300Z,99.90
2018-11-04T19:57:47.953Z,99.90
2018-11-04T20:00:17.294Z,99.90
2018-11-04T20:02:46.729Z,99.90
2018-11-04T20:05:19.857Z,99.90
2018-11-04T20:07:49.013Z,99.90
2018-11-04T20:10:19.628Z,99.90
2018-11-04T20:12:56.221Z,99.90
2018-11-04T20:15:27.340Z,99.90
2018-11-04T20:17:56.556Z,99.90
2018-11-04T20:20:27.386Z,99.90
2018-11-04T20:22:57.008Z,99.90
2018-11-04T20:25:31.789Z,99.90
2018-11-04T20:28:01.349Z,99.90
2018-11-04T20:30:31.401Z,99.90
2018-11-04T20:33:06.107Z,99.90
2018-11-04T20:35:35.465Z,99.90
2018-11-04T20:38:07.394Z,99.90
2018-11-04T20:43:13.471Z,99.90
2018-11-04T20:45:43.162Z,99.90
2018-11-04T20:48:18.086Z,99.90
2018-11-04T20:50:53.651Z,99.90
2018-11-04T20:53:25.055Z,99.90
2018-11-04T20:58:30.631Z,99.90
2018-11-04T21:01:02.181Z,99.90
2018-11-04T21:03:31.637Z,99.90
2018-11-04T21:06:00.812Z,99.90
2018-11-04T21:08:32.321Z,99.90
2018-11-04T21:11:01.379Z,99.90
2018-11-04T21:13:31.908Z,99.90
2018-11-04T21:16:01.927Z,99.90
2018-11-04T21:18:30.959Z,99.90
2018-11-04T21:20:59.923Z,99.90
2018-11-04T21:23:29.053Z,99.90
2018-11-04T21:25:59.417Z,99.90
2018-11-04T21:28:29.021Z,99.90
2018-11-04T21:30:58.560Z,99.90
2018-11-04T21:33:27.961Z,99.90
2018-11-04T21:35:57.800Z,99.90
2018-11-04T21:38:26.861Z,99.90
2018-11-04T21:41:02.743Z,99.90
2018-11-04T21:43:32.524Z,99.90
2018-11-04T21:46:01.307Z,99.90
2018-11-04T21:48:30.900Z,99.90
2018-11-04T21:50:59.789Z,99.90
2018-11-04T21:53:29.081Z,99.90
2018-11-04T21:55:57.985Z,99.90
2018-11-04T21:58:26.698Z,99.90
2018-11-04T22:00:55.630Z,99.90
2018-11-04T22:03:24.574Z,99.90
2018-11-04T22:05:54.084Z,99.90
2018-11-04T22:08:23.202Z,99.90
2018-11-04T22:10:52.380Z,99.90
2018-11-04T22:13:21.535Z,99.90
2018-11-04T22:15:50.339Z,99.90
2018-11-04T22:18:19.001Z,99.90
2018-11-04T22:20:47.640Z,99.90
2018-11-04T22:23:16.172Z,99.90
2018-11-04T22:25:46.725Z,99.90
2018-11-04T22:28:15.956Z,99.90
2018-11-04T22:30:44.492Z,99.90
2018-11-04T22:33:12.993Z,99.90
2018-11-04T22:35:41.599Z,99.90
2018-11-04T22:38:10.136Z,99.90
2018-11-04T22:40:38.935Z,99.90
2018-11-04T22:43:07.417Z,99.90
2018-11-04T22:45:35.851Z,99.90
2018-11-04T22:48:04.356Z,99.90
2018-11-04T22:50:33.217Z,99.90
2018-11-04T22:53:02.536Z,99.90
2018-11-04T22:55:32.232Z,99.90
2018-11-04T22:58:07.455Z,99.90
2018-11-04T23:00:46.023Z,99.90
2018-11-04T23:03:14.764Z,99.90
2018-11-04T23:05:44.799Z,99.90
2018-11-04T23:08:13.263Z,99.90
2018-11-04T23:10:42.553Z,99.90
2018-11-04T23:13:13.310Z,99.90
2018-11-04T23:15:42.564Z,99.90
2018-11-04T23:18:11.143Z,99.90
2018-11-04T23:20:39.569Z,99.90
2018-11-04T23:23:08.243Z,99.90
2018-11-04T23:25:36.956Z,99.90
2018-11-04T23:28:05.499Z,99.90
2018-11-04T23:30:34.415Z,99.90
2018-11-04T23:33:02.847Z,99.90
2018-11-04T23:35:32.249Z,99.90
2018-11-04T23:38:00.722Z,99.90
2018-11-04T23:40:34.485Z,99.90
2018-11-04T23:43:03.709Z,99.90
2018-11-04T23:45:32.186Z,99.90
2018-11-04T23:48:00.853Z,99.90
2018-11-04T23:50:30.018Z,99.90
2018-11-04T23:52:58.516Z,99.90
2018-11-04T23:55:27.939Z,99.90
2018-11-04T23:57:57.055Z,99.90
